Malden, MA (02148)

8:16 AM EST on January 21, 2017 (GMT -0500)
Malden | | Change Station
Active Advisory: Gale Watch

Elev 0 ft 42.43 °N, 71.07 °W | Updated 3 minutes ago

Overcast
Overcast
39.9 °F
Feels Like 40 °F
N
1.2
Wind Variable Wind from West
Gusts 4.3 mph

Today
High -- | Low -- °F
--% Chance of Precip.
Yesterday
High -- | Low -- °F
Precip. -- in
Pressure 29.85 in
Visibility 9.0 miles
Clouds Mostly Cloudy 1000 ft
Mostly Cloudy 4500 ft
Overcast 5500 ft
Windchill 40 °F
Dew Point 37 °F
Humidity 89%
Rainfall Not available.
Snow Depth Not available.
7:07 AM 4:44 PM
Waning Crescent, 35% visible
METAR KBOS 211254Z 24010KT 9SM BKN010 BKN045 OVC055 04/03 A2985 RMK AO2 SLP107 T00440033
Pressure 29.85 in
Visibility 9.0 miles
Clouds Mostly Cloudy 1000 ft
Mostly Cloudy 4500 ft
Overcast 5500 ft
Windchill 40 °F
Dew Point 37 °F
Humidity 89%
Rainfall Not available.
Snow Depth Not available.
7:07 AM 4:44 PM
Waning Crescent, 35% visible
METAR KBOS 211254Z 24010KT 9SM BKN010 BKN045 OVC055 04/03 A2985 RMK AO2 SLP107 T00440033

Get Your Daily Forecast Email!

Thanks for signing up!

Be on the lookout for a verification email in your inbox.

You'll start receiving the daily forecast at 8 AM.

×

10-Day Weather Forecast

Almanac

Astronomy

Jan. 21, 2017 Rise Set
Actual Time
Civil Twilight
Nautical Twilight
Astronomical Twilight
Moon
Length of Visible Light
Length of Day
Tomorrow will be .
, % of the Moon is Illuminated

Today's Extremes

State Highs State Lows

Community

WunderPhotos

Upload Photos

1,962,540 photos uploaded!

WunderBlog® & News

Nearby

Air Quality

  Air Quality AQ Index Pollutant
Not available.

Snow Depth

Station Depth Elevation

Earthquake Activity

City Distance Mag. Time & Date
Minimum magnitude displayed is 2.5.

Coastal Water Temperatures

Place Temperature

Stations

Nearby Weather Stations

Station Location Temp. Windchill Dew Point Humidity Wind Precip. Elev Updated Type
                   

Watches & Warnings

Gale Watch
Issued: 4:03 AM EST Jan. 21, 2017 – National Weather Service

... Gale watch now in effect from Monday morning through late
Monday night...

* winds and seas... east winds 25 to 35 kt with gusts up to 40
kt. Seas 4 to 7 feet.

Precautionary/preparedness actions...

A gale watch is issued when the risk of gale force winds of 34 to
47 knots has significantly increased... but the specific timing
and/or location is still uncertain. It is intended to provide
additional lead time for mariners who may wish to consider
altering their plans.